sensor_id;sensor_type;location;lat;lon;timestamp;pressure;altitude;pressure_sealevel;temperature;humidity
21555;BME280;10938;44.794;-0.676;2023-02-17T00:00:08;102613.34;;;15.39;88.48
21555;BME280;10938;44.794;-0.676;2023-02-17T00:02:34;102613.34;;;15.39;87.79
21555;BME280;10938;44.794;-0.676;2023-02-17T00:05:00;102623.81;;;15.38;87.24
21555;BME280;10938;44.794;-0.676;2023-02-17T00:07:25;102608.84;;;15.35;87.22
21555;BME280;10938;44.794;-0.676;2023-02-17T00:09:56;102611.47;;;15.35;87.46
21555;BME280;10938;44.794;-0.676;2023-02-17T00:12:22;102618.44;;;15.33;87.21
21555;BME280;10938;44.794;-0.676;2023-02-17T00:14:47;102616.53;;;15.26;86.88
21555;BME280;10938;44.794;-0.676;2023-02-17T00:17:13;102617.38;;;15.25;87.08
21555;BME280;10938;44.794;-0.676;2023-02-17T00:19:38;102619.09;;;15.25;87.33
21555;BME280;10938;44.794;-0.676;2023-02-17T00:22:04;102619.84;;;15.19;88.50
21555;BME280;10938;44.794;-0.676;2023-02-17T00:24:31;102611.97;;;15.19;88.29
21555;BME280;10938;44.794;-0.676;2023-02-17T00:26:59;102610.03;;;15.12;89.75
21555;BME280;10938;44.794;-0.676;2023-02-17T00:29:25;102616.94;;;15.07;90.71
21555;BME280;10938;44.794;-0.676;2023-02-17T00:31:54;102608.97;;;15.04;92.45
21555;BME280;10938;44.794;-0.676;2023-02-17T00:34:20;102609.69;;;14.99;91.89
21555;BME280;10938;44.794;-0.676;2023-02-17T00:36:46;102611.41;;;14.97;91.00
21555;BME280;10938;44.794;-0.676;2023-02-17T00:39:13;102607.03;;;14.97;90.24
21555;BME280;10938;44.794;-0.676;2023-02-17T00:41:39;102598.28;;;14.97;90.63
21555;BME280;10938;44.794;-0.676;2023-02-17T00:44:04;102593.88;;;14.95;89.43
21555;BME280;10938;44.794;-0.676;2023-02-17T00:46:30;102602.47;;;14.90;89.32
21555;BME280;10938;44.794;-0.676;2023-02-17T00:48:55;102596.28;;;14.88;89.57
21555;BME280;10938;44.794;-0.676;2023-02-17T00:51:21;102605.81;;;14.83;88.73
21555;BME280;10938;44.794;-0.676;2023-02-17T00:53:48;102616.16;;;14.78;89.16
21555;BME280;10938;44.794;-0.676;2023-02-17T00:56:14;102608.19;;;14.74;90.14
21555;BME280;10938;44.794;-0.676;2023-02-17T00:58:40;102607.31;;;14.73;89.02
21555;BME280;10938;44.794;-0.676;2023-02-17T01:01:06;102599.53;;;14.78;88.00
21555;BME280;10938;44.794;-0.676;2023-02-17T01:03:31;102599.28;;;14.69;88.33
21555;BME280;10938;44.794;-0.676;2023-02-17T01:05:58;102592.16;;;14.63;88.06
21555;BME280;10938;44.794;-0.676;2023-02-17T01:08:24;102590.34;;;14.61;88.51
21555;BME280;10938;44.794;-0.676;2023-02-17T01:10:51;102593.00;;;14.62;86.96
21555;BME280;10938;44.794;-0.676;2023-02-17T01:13:17;102596.59;;;14.66;87.16
21555;BME280;10938;44.794;-0.676;2023-02-17T01:15:49;102594.81;;;14.65;87.13
21555;BME280;10938;44.794;-0.676;2023-02-17T01:18:15;102601.56;;;14.55;88.56
21555;BME280;10938;44.794;-0.676;2023-02-17T01:20:41;102590.88;;;14.48;87.47
21555;BME280;10938;44.794;-0.676;2023-02-17T01:23:09;102595.41;;;14.55;86.93
21555;BME280;10938;44.794;-0.676;2023-02-17T01:25:40;102596.38;;;14.58;87.13
21555;BME280;10938;44.794;-0.676;2023-02-17T01:28:06;102601.69;;;14.60;86.88
21555;BME280;10938;44.794;-0.676;2023-02-17T01:30:32;102601.75;;;14.63;86.64
21555;BME280;10938;44.794;-0.676;2023-02-17T01:32:58;102601.75;;;14.63;87.40
21555;BME280;10938;44.794;-0.676;2023-02-17T01:35:23;102599.22;;;14.66;87.57
21555;BME280;10938;44.794;-0.676;2023-02-17T01:37:49;102601.91;;;14.69;87.38
21555;BME280;10938;44.794;-0.676;2023-02-17T01:40:15;102602.72;;;14.66;87.72
21555;BME280;10938;44.794;-0.676;2023-02-17T01:42:41;102602.75;;;14.68;87.37
21555;BME280;10938;44.794;-0.676;2023-02-17T01:45:29;102608.19;;;14.74;87.16
21555;BME280;10938;44.794;-0.676;2023-02-17T01:47:59;102608.97;;;14.71;87.47
21555;BME280;10938;44.794;-0.676;2023-02-17T01:50:32;102606.19;;;14.65;87.80
21555;BME280;10938;44.794;-0.676;2023-02-17T01:53:01;102610.53;;;14.63;88.51
21555;BME280;10938;44.794;-0.676;2023-02-17T01:55:28;102607.94;;;14.65;88.38
21555;BME280;10938;44.794;-0.676;2023-02-17T01:57:56;102606.34;;;14.70;88.35
21555;BME280;10938;44.794;-0.676;2023-02-17T02:00:25;102607.31;;;14.73;88.15
21555;BME280;10938;44.794;-0.676;2023-02-17T02:02:51;102599.56;;;14.79;87.72
21555;BME280;10938;44.794;-0.676;2023-02-17T02:05:18;102605.88;;;14.86;87.26
21555;BME280;10938;44.794;-0.676;2023-02-17T02:07:45;102607.53;;;14.82;87.22
21555;BME280;10938;44.794;-0.676;2023-02-17T02:10:15;102609.25;;;14.80;87.96
21555;BME280;10938;44.794;-0.676;2023-02-17T02:12:42;102606.69;;;14.83;88.82
21555;BME280;10938;44.794;-0.676;2023-02-17T02:33:49;102592.63;;;14.81;89.20
21555;BME280;10938;44.794;-0.676;2023-02-17T02:36:20;102588.25;;;14.82;88.72
21555;BME280;10938;44.794;-0.676;2023-02-17T02:39:02;102593.66;;;14.88;88.65
21555;BME280;10938;44.794;-0.676;2023-02-17T02:41:38;102589.34;;;14.90;89.25
21555;BME280;10938;44.794;-0.676;2023-02-17T02:44:15;102585.09;;;14.95;89.46
21555;BME280;10938;44.794;-0.676;2023-02-17T02:46:42;102584.03;;;14.87;90.77
21555;BME280;10938;44.794;-0.676;2023-02-17T02:49:07;102588.34;;;14.85;91.37
21555;BME280;10938;44.794;-0.676;2023-02-17T02:51:48;102588.50;;;14.91;89.96
21555;BME280;10938;44.794;-0.676;2023-02-17T02:59:29;102584.75;;;14.81;90.07
21555;BME280;10938;44.794;-0.676;2023-02-17T03:02:05;102590.72;;;14.76;90.46
21555;BME280;10938;44.794;-0.676;2023-02-17T03:04:39;102595.84;;;14.71;90.52
21555;BME280;10938;44.794;-0.676;2023-02-17T03:07:45;102594.88;;;14.68;90.05
21555;BME280;10938;44.794;-0.676;2023-02-17T03:10:14;102590.13;;;14.53;91.78
21555;BME280;10938;44.794;-0.676;2023-02-17T03:12:42;102590.13;;;14.53;92.21
21555;BME280;10938;44.794;-0.676;2023-02-17T03:15:18;102581.22;;;14.48;91.69
21555;BME280;10938;44.794;-0.676;2023-02-17T03:17:46;102578.50;;;14.43;91.10
21555;BME280;10938;44.794;-0.676;2023-02-17T03:20:12;102584.59;;;14.42;91.64
21555;BME280;10938;44.794;-0.676;2023-02-17T03:22:40;102583.53;;;14.36;92.27
21555;BME280;10938;44.794;-0.676;2023-02-17T03:25:07;102586.00;;;14.31;92.40
21555;BME280;10938;44.794;-0.676;2023-02-17T03:27:33;102584.16;;;14.27;92.83
21555;BME280;10938;44.794;-0.676;2023-02-17T03:29:58;102588.53;;;14.28;91.87
21555;BME280;10938;44.794;-0.676;2023-02-17T03:32:24;102585.00;;;14.26;91.22
21555;BME280;10938;44.794;-0.676;2023-02-17T03:34:49;102584.94;;;14.25;92.19
21555;BME280;10938;44.794;-0.676;2023-02-17T03:37:17;102589.19;;;14.21;92.40
21555;BME280;10938;44.794;-0.676;2023-02-17T03:39:43;102579.53;;;14.19;91.33
21555;BME280;10938;44.794;-0.676;2023-02-17T03:42:09;102583.94;;;14.21;90.90
21555;BME280;10938;44.794;-0.676;2023-02-17T03:44:34;102590.00;;;14.19;91.48
21555;BME280;10938;44.794;-0.676;2023-02-17T03:47:00;102587.53;;;14.23;90.81
21555;BME280;10938;44.794;-0.676;2023-02-17T03:49:25;102580.63;;;14.27;91.79
21555;BME280;10938;44.794;-0.676;2023-02-17T03:51:51;102583.38;;;14.31;92.81
21555;BME280;10938;44.794;-0.676;2023-02-17T03:54:16;102582.72;;;14.38;90.51
21555;BME280;10938;44.794;-0.676;2023-02-17T03:56:42;102591.63;;;14.43;91.23
21555;BME280;10938;44.794;-0.676;2023-02-17T03:59:07;102589.59;;;14.33;92.06
21555;BME280;10938;44.794;-0.676;2023-02-17T04:01:32;102595.91;;;14.40;92.08
21555;BME280;10938;44.794;-0.676;2023-02-17T04:03:58;102581.16;;;14.45;92.16
21555;BME280;10938;44.794;-0.676;2023-02-17T04:06:23;102595.16;;;14.46;92.05
21555;BME280;10938;44.794;-0.676;2023-02-17T04:08:49;102593.75;;;14.58;91.29
21555;BME280;10938;44.794;-0.676;2023-02-17T04:11:14;102598.22;;;14.61;91.58
21555;BME280;10938;44.794;-0.676;2023-02-17T04:13:40;102591.22;;;14.61;91.41
21555;BME280;10938;44.794;-0.676;2023-02-17T04:16:07;102597.13;;;14.53;92.95
21555;BME280;10938;44.794;-0.676;2023-02-17T04:18:34;102585.03;;;14.58;92.92
21555;BME280;10938;44.794;-0.676;2023-02-17T04:21:03;102586.38;;;14.43;93.87
21555;BME280;10938;44.794;-0.676;2023-02-17T04:23:28;102583.38;;;14.31;96.43
21555;BME280;10938;44.794;-0.676;2023-02-17T04:25:54;102585.88;;;14.58;94.41
21555;BME280;10938;44.794;-0.676;2023-02-17T04:28:20;102593.13;;;14.67;94.29
21555;BME280;10938;44.794;-0.676;2023-02-17T04:30:48;102599.38;;;14.72;94.96
21555;BME280;10938;44.794;-0.676;2023-02-17T04:33:14;102596.06;;;14.79;95.58
21555;BME280;10938;44.794;-0.676;2023-02-17T04:35:40;102594.47;;;14.84;95.06
21555;BME280;10938;44.794;-0.676;2023-02-17T04:38:07;102589.28;;;14.88;95.00
21555;BME280;10938;44.794;-0.676;2023-02-17T04:40:33;102599.94;;;14.93;95.01
21555;BME280;10938;44.794;-0.676;2023-02-17T04:43:02;102598.97;;;14.89;96.19
21555;BME280;10938;44.794;-0.676;2023-02-17T04:45:28;102599.25;;;15.02;96.13
21555;BME280;10938;44.794;-0.676;2023-02-17T04:47:53;102608.19;;;15.08;96.30
21555;BME280;10938;44.794;-0.676;2023-02-17T04:50:19;102603.13;;;15.16;94.98
21555;BME280;10938;44.794;-0.676;2023-02-17T04:52:44;102608.44;;;15.17;95.12
21555;BME280;10938;44.794;-0.676;2023-02-17T04:55:10;102605.94;;;15.23;95.49
21555;BME280;10938;44.794;-0.676;2023-02-17T04:57:35;102595.50;;;15.26;95.58
21555;BME280;10938;44.794;-0.676;2023-02-17T05:00:02;102601.72;;;15.30;95.88
21555;BME280;10938;44.794;-0.676;2023-02-17T05:02:27;102605.25;;;15.32;96.14
21555;BME280;10938;44.794;-0.676;2023-02-17T05:04:54;102614.88;;;15.31;96.46
21555;BME280;10938;44.794;-0.676;2023-02-17T05:07:20;102612.44;;;15.39;95.94
21555;BME280;10938;44.794;-0.676;2023-02-17T05:09:45;102611.69;;;15.44;95.67
21555;BME280;10938;44.794;-0.676;2023-02-17T05:12:11;102617.81;;;15.43;95.35
21555;BME280;10938;44.794;-0.676;2023-02-17T05:14:37;102618.53;;;15.36;95.52
21555;BME280;10938;44.794;-0.676;2023-02-17T05:17:02;102629.09;;;15.39;95.61
21555;BME280;10938;44.794;-0.676;2023-02-17T05:19:27;102621.16;;;15.38;94.89
21555;BME280;10938;44.794;-0.676;2023-02-17T05:21:53;102629.19;;;15.42;95.23
21555;BME280;10938;44.794;-0.676;2023-02-17T05:24:18;102630.91;;;15.40;96.56
21555;BME280;10938;44.794;-0.676;2023-02-17T05:26:44;102628.41;;;15.46;95.94
21555;BME280;10938;44.794;-0.676;2023-02-17T05:29:09;102625.66;;;15.42;96.76
21555;BME280;10938;44.794;-0.676;2023-02-17T05:31:35;102629.19;;;15.42;96.60
21555;BME280;10938;44.794;-0.676;2023-02-17T05:34:01;102626.63;;;15.45;96.28
21555;BME280;10938;44.794;-0.676;2023-02-17T05:36:58;102626.78;;;15.52;96.86
21555;BME280;10938;44.794;-0.676;2023-02-17T05:39:24;102623.84;;;15.39;96.97
21555;BME280;10938;44.794;-0.676;2023-02-17T05:41:49;102626.34;;;15.33;97.20
21555;BME280;10938;44.794;-0.676;2023-02-17T05:44:15;102630.69;;;15.33;97.36
21555;BME280;10938;44.794;-0.676;2023-02-17T05:46:40;102624.75;;;15.40;96.79
21555;BME280;10938;44.794;-0.676;2023-02-17T05:49:06;102633.34;;;15.34;97.11
21555;BME280;10938;44.794;-0.676;2023-02-17T05:51:34;102627.25;;;15.35;97.20
21555;BME280;10938;44.794;-0.676;2023-02-17T05:53:59;102629.09;;;15.39;96.62
21555;BME280;10938;44.794;-0.676;2023-02-17T05:56:25;102631.75;;;15.39;96.13
21555;BME280;10938;44.794;-0.676;2023-02-17T05:58:50;102632.50;;;15.34;96.37
21555;BME280;10938;44.794;-0.676;2023-02-17T06:01:19;102633.28;;;15.31;96.17
21555;BME280;10938;44.794;-0.676;2023-02-17T06:03:44;102640.38;;;15.34;95.17
21555;BME280;10938;44.794;-0.676;2023-02-17T06:06:10;102633.44;;;15.37;95.11
21555;BME280;10938;44.794;-0.676;2023-02-17T06:08:38;102634.28;;;15.36;95.45
21555;BME280;10938;44.794;-0.676;2023-02-17T06:11:04;102632.56;;;15.38;95.31
21555;BME280;10938;44.794;-0.676;2023-02-17T06:13:29;102637.06;;;15.42;94.64
21555;BME280;10938;44.794;-0.676;2023-02-17T06:15:54;102638.19;;;15.51;94.38
21555;BME280;10938;44.794;-0.676;2023-02-17T06:18:20;102633.75;;;15.50;94.71
21555;BME280;10938;44.794;-0.676;2023-02-17T06:20:46;102637.06;;;15.42;96.21
21555;BME280;10938;44.794;-0.676;2023-02-17T06:23:11;102633.06;;;15.57;95.10
21555;BME280;10938;44.794;-0.676;2023-02-17T06:25:37;102634.03;;;15.60;95.31
21555;BME280;10938;44.794;-0.676;2023-02-17T06:28:02;102635.03;;;15.67;94.25
21555;BME280;10938;44.794;-0.676;2023-02-17T06:30:28;102630.75;;;15.72;93.94
21555;BME280;10938;44.794;-0.676;2023-02-17T06:32:53;102634.28;;;15.72;94.35
21555;BME280;10938;44.794;-0.676;2023-02-17T06:35:19;102637.88;;;15.76;95.05
21555;BME280;10938;44.794;-0.676;2023-02-17T06:37:44;102639.63;;;15.75;94.90
21555;BME280;10938;44.794;-0.676;2023-02-17T06:40:10;102638.78;;;15.78;96.03
21555;BME280;10938;44.794;-0.676;2023-02-17T06:42:36;102639.91;;;15.87;95.54
21555;BME280;10938;44.794;-0.676;2023-02-17T06:45:01;102647.75;;;15.86;96.46
21555;BME280;10938;44.794;-0.676;2023-02-17T06:47:30;102647.94;;;15.95;95.60
21555;BME280;10938;44.794;-0.676;2023-02-17T06:49:56;102655.13;;;16.02;95.29
21555;BME280;10938;44.794;-0.676;2023-02-17T06:52:21;102655.19;;;16.05;95.14
21555;BME280;10938;44.794;-0.676;2023-02-17T06:54:47;102650.97;;;16.13;94.85
21555;BME280;10938;44.794;-0.676;2023-02-17T06:57:12;102652.84;;;16.17;94.46
21555;BME280;10938;44.794;-0.676;2023-02-17T06:59:38;102649.19;;;16.11;94.89
21555;BME280;10938;44.794;-0.676;2023-02-17T07:02:03;102650.44;;;15.89;97.38
21555;BME280;10938;44.794;-0.676;2023-02-17T07:04:29;102654.22;;;16.02;97.08
21555;BME280;10938;44.794;-0.676;2023-02-17T07:06:54;102657.16;;;16.15;95.27
21555;BME280;10938;44.794;-0.676;2023-02-17T07:09:22;102654.75;;;16.24;94.76
21555;BME280;10938;44.794;-0.676;2023-02-17T07:11:48;102655.88;;;16.37;94.59
21555;BME280;10938;44.794;-0.676;2023-02-17T07:14:15;102661.53;;;16.55;94.26
21555;BME280;10938;44.794;-0.676;2023-02-17T07:16:41;102661.84;;;16.72;94.17
21555;BME280;10938;44.794;-0.676;2023-02-17T07:19:06;102654.25;;;16.88;92.29
21555;BME280;10938;44.794;-0.676;2023-02-17T07:21:31;102663.41;;;17.09;91.88
21555;BME280;10938;44.794;-0.676;2023-02-17T07:23:57;102659.22;;;17.20;91.98
21555;BME280;10938;44.794;-0.676;2023-02-17T07:26:22;102668.25;;;17.34;91.72
21555;BME280;10938;44.794;-0.676;2023-02-17T07:28:48;102665.16;;;17.58;90.61
21555;BME280;10938;44.794;-0.676;2023-02-17T07:31:16;102675.16;;;17.80;91.07
21555;BME280;10938;44.794;-0.676;2023-02-17T07:33:44;102673.63;;;17.97;89.86
21555;BME280;10938;44.794;-0.676;2023-02-17T07:36:13;102680.78;;;18.06;88.69
21555;BME280;10938;44.794;-0.676;2023-02-17T07:38:40;102671.94;;;18.00;89.43
21555;BME280;10938;44.794;-0.676;2023-02-17T07:41:07;102667.66;;;17.55;92.08
21555;BME280;10938;44.794;-0.676;2023-02-17T07:43:33;102677.28;;;17.49;93.21
21555;BME280;10938;44.794;-0.676;2023-02-17T07:45:59;102683.81;;;17.71;92.45
21555;BME280;10938;44.794;-0.676;2023-02-17T07:48:25;102688.13;;;17.66;92.80
21555;BME280;10938;44.794;-0.676;2023-02-17T07:50:50;102692.47;;;17.61;93.08
21555;BME280;10938;44.794;-0.676;2023-02-17T07:53:16;102689.09;;;17.73;91.99
21555;BME280;10938;44.794;-0.676;2023-02-17T07:55:41;102699.03;;;17.89;90.93
21555;BME280;10938;44.794;-0.676;2023-02-17T07:58:07;102702.75;;;18.03;90.16
21555;BME280;10938;44.794;-0.676;2023-02-17T08:00:32;102702.78;;;18.06;89.72
21555;BME280;10938;44.794;-0.676;2023-02-17T08:02:58;102707.41;;;18.21;89.16
21555;BME280;10938;44.794;-0.676;2023-02-17T08:05:24;102698.66;;;18.26;89.35
21555;BME280;10938;44.794;-0.676;2023-02-17T08:07:49;102704.03;;;18.32;90.15
21555;BME280;10938;44.794;-0.676;2023-02-17T08:10:36;102708.19;;;18.15;91.03
21555;BME280;10938;44.794;-0.676;2023-02-17T08:13:20;102717.34;;;17.27;96.09
21555;BME280;10938;44.794;-0.676;2023-02-17T08:15:46;102715.28;;;18.19;92.27
21555;BME280;10938;44.794;-0.676;2023-02-17T08:18:11;102718.81;;;18.89;91.86
21555;BME280;10938;44.794;-0.676;2023-02-17T08:20:39;102715.06;;;19.53;88.97
21555;BME280;10938;44.794;-0.676;2023-02-17T08:23:05;102725.09;;;19.96;88.77
21555;BME280;10938;44.794;-0.676;2023-02-17T08:25:32;102726.06;;;20.15;87.39
21555;BME280;10938;44.794;-0.676;2023-02-17T08:27:58;102706.88;;;20.55;85.59
21555;BME280;10938;44.794;-0.676;2023-02-17T08:30:23;102715.53;;;20.21;85.76
21555;BME280;10938;44.794;-0.676;2023-02-17T08:32:49;102711.91;;;20.07;85.93
21555;BME280;10938;44.794;-0.676;2023-02-17T08:35:14;102713.63;;;19.97;86.74
21555;BME280;10938;44.794;-0.676;2023-02-17T08:37:42;102719.03;;;20.14;85.98
21555;BME280;10938;44.794;-0.676;2023-02-17T08:40:07;102714.91;;;20.83;83.08
21555;BME280;10938;44.794;-0.676;2023-02-17T08:42:33;102711.50;;;21.23;81.51
21555;BME280;10938;44.794;-0.676;2023-02-17T08:44:59;102704.41;;;21.49;80.57
21555;BME280;10938;44.794;-0.676;2023-02-17T08:47:24;102711.50;;;21.56;79.26
21555;BME280;10938;44.794;-0.676;2023-02-17T08:49:50;102708.84;;;21.26;81.69
21555;BME280;10938;44.794;-0.676;2023-02-17T08:52:15;102723.88;;;21.71;79.45
21555;BME280;10938;44.794;-0.676;2023-02-17T08:54:41;102730.06;;;21.81;78.74
21555;BME280;10938;44.794;-0.676;2023-02-17T08:57:06;102733.63;;;21.95;78.65
21555;BME280;10938;44.794;-0.676;2023-02-17T08:59:32;102735.34;;;22.20;77.59
21555;BME280;10938;44.794;-0.676;2023-02-17T09:01:57;102737.09;;;22.24;78.35
21555;BME280;10938;44.794;-0.676;2023-02-17T09:04:23;102736.13;;;22.43;77.29
21555;BME280;10938;44.794;-0.676;2023-02-17T09:06:51;102750.28;;;22.57;76.58
21555;BME280;10938;44.794;-0.676;2023-02-17T09:09:20;102740.59;;;22.41;77.25
21555;BME280;10938;44.794;-0.676;2023-02-17T09:11:47;102745.84;;;22.53;76.89
21555;BME280;10938;44.794;-0.676;2023-02-17T09:14:12;102751.13;;;22.69;76.47
21555;BME280;10938;44.794;-0.676;2023-02-17T09:16:38;102758.16;;;22.82;75.50
21555;BME280;10938;44.794;-0.676;2023-02-17T09:19:04;102754.63;;;22.75;75.80
21555;BME280;10938;44.794;-0.676;2023-02-17T09:21:30;102759.13;;;22.67;76.54
21555;BME280;10938;44.794;-0.676;2023-02-17T09:23:55;102760.78;;;22.86;75.53
21555;BME280;10938;44.794;-0.676;2023-02-17T09:26:21;102765.97;;;23.11;75.32
21555;BME280;10938;44.794;-0.676;2023-02-17T09:28:47;102772.13;;;23.19;75.20
21555;BME280;10938;44.794;-0.676;2023-02-17T09:31:22;102766.84;;;23.17;74.96
21555;BME280;10938;44.794;-0.676;2023-02-17T09:33:48;102765.19;;;22.95;75.52
21555;BME280;10938;44.794;-0.676;2023-02-17T09:36:17;102770.31;;;23.22;74.18
21555;BME280;10938;44.794;-0.676;2023-02-17T09:38:44;102773.94;;;23.18;73.89
21555;BME280;10938;44.794;-0.676;2023-02-17T09:41:38;102779.09;;;23.39;74.72
21555;BME280;10938;44.794;-0.676;2023-02-17T09:44:15;102785.06;;;23.75;71.37
21555;BME280;10938;44.794;-0.676;2023-02-17T09:46:47;102789.34;;;23.94;71.11
21555;BME280;10938;44.794;-0.676;2023-02-17T09:49:22;102788.28;;;24.12;70.61
21555;BME280;10938;44.794;-0.676;2023-02-17T09:54:47;102788.44;;;23.93;67.13
21555;BME280;10938;44.794;-0.676;2023-02-17T09:57:17;102788.53;;;23.84;68.43
21555;BME280;10938;44.794;-0.676;2023-02-17T09:59:51;102789.34;;;23.94;67.36
21555;BME280;10938;44.794;-0.676;2023-02-17T10:02:24;102790.59;;;23.50;68.43
21555;BME280;10938;44.794;-0.676;2023-02-17T10:04:52;102787.59;;;23.90;68.64
21555;BME280;10938;44.794;-0.676;2023-02-17T10:07:41;102782.66;;;24.40;68.42
21555;BME280;10938;44.794;-0.676;2023-02-17T10:10:13;102793.34;;;24.39;67.66
21555;BME280;10938;44.794;-0.676;2023-02-17T10:12:44;102789.09;;;24.21;67.12
21555;BME280;10938;44.794;-0.676;2023-02-17T10:15:14;102794.56;;;24.04;68.20
21555;BME280;10938;44.794;-0.676;2023-02-17T10:23:20;102795.22;;;24.29;67.47
21555;BME280;10938;44.794;-0.676;2023-02-17T10:26:54;102800.09;;;24.72;66.98
21555;BME280;10938;44.794;-0.676;2023-02-17T10:29:06;102794.56;;;24.88;65.83
21555;BME280;10938;44.794;-0.676;2023-02-17T10:34:37;102788.72;;;23.65;66.84
21555;BME280;10938;44.794;-0.676;2023-02-17T10:37:11;102790.81;;;23.09;69.06
21555;BME280;10938;44.794;-0.676;2023-02-17T10:39:50;102789.56;;;23.67;67.06
21555;BME280;10938;44.794;-0.676;2023-02-17T10:44:51;102794.53;;;24.06;67.42
21555;BME280;10938;44.794;-0.676;2023-02-17T10:47:21;102789.09;;;24.21;66.41
21555;BME280;10938;44.794;-0.676;2023-02-17T10:49:49;102783.09;;;24.76;65.87
21555;BME280;10938;44.794;-0.676;2023-02-17T10:52:36;102784.22;;;24.59;66.62
21555;BME280;10938;44.794;-0.676;2023-02-17T10:55:18;102774.06;;;24.09;67.45
21555;BME280;10938;44.794;-0.676;2023-02-17T10:57:47;102768.81;;;24.03;64.32
21555;BME280;10938;44.794;-0.676;2023-02-17T11:00:17;102778.34;;;24.30;65.71
21555;BME280;10938;44.794;-0.676;2023-02-17T11:02:45;102780.13;;;24.31;64.49
21555;BME280;10938;44.794;-0.676;2023-02-17T11:05:29;102776.97;;;24.71;63.46
21555;BME280;10938;44.794;-0.676;2023-02-17T11:08:05;102779.97;;;25.12;63.35
21555;BME280;10938;44.794;-0.676;2023-02-17T11:10:36;102778.13;;;25.16;62.07
21555;BME280;10938;44.794;-0.676;2023-02-17T11:13:27;102779.75;;;25.27;62.34
21555;BME280;10938;44.794;-0.676;2023-02-17T11:15:54;102783.84;;;25.52;62.26
21555;BME280;10938;44.794;-0.676;2023-02-17T11:18:28;102791.63;;;25.68;61.81
21555;BME280;10938;44.794;-0.676;2023-02-17T11:21:07;102785.72;;;25.44;60.53
21555;BME280;10938;44.794;-0.676;2023-02-17T11:23:33;102779.47;;;25.45;61.60
21555;BME280;10938;44.794;-0.676;2023-02-17T11:26:10;102784.63;;;25.59;58.58
21555;BME280;10938;44.794;-0.676;2023-02-17T11:28:36;102777.13;;;25.81;58.70
21555;BME280;10938;44.794;-0.676;2023-02-17T11:33:38;102774.56;;;25.18;58.26
21555;BME280;10938;44.794;-0.676;2023-02-17T11:36:28;102779.44;;;25.50;58.33
21555;BME280;10938;44.794;-0.676;2023-02-17T11:38:54;102767.56;;;25.68;55.09
21555;BME280;10938;44.794;-0.676;2023-02-17T11:41:20;102771.72;;;25.85;57.88
21555;BME280;10938;44.794;-0.676;2023-02-17T11:43:54;102771.31;;;26.08;54.92
21555;BME280;10938;44.794;-0.676;2023-02-17T11:46:28;102765.50;;;25.85;55.12
21555;BME280;10938;44.794;-0.676;2023-02-17T12:05:34;102742.97;;;26.44;55.29
21555;BME280;10938;44.794;-0.676;2023-02-17T12:16:56;102738.84;;;26.28;52.55
21555;BME280;10938;44.794;-0.676;2023-02-17T12:22:31;102737.50;;;26.50;52.49
21555;BME280;10938;44.794;-0.676;2023-02-17T12:36:32;102717.31;;;25.88;52.51
21555;BME280;10938;44.794;-0.676;2023-02-17T12:39:17;102715.38;;;25.96;51.55
21555;BME280;10938;44.794;-0.676;2023-02-17T12:41:49;102712.88;;;25.87;51.65
21555;BME280;10938;44.794;-0.676;2023-02-17T12:44:21;102709.44;;;26.26;50.93
21555;BME280;10938;44.794;-0.676;2023-02-17T12:46:51;102713.75;;;26.35;50.84
21555;BME280;10938;44.794;-0.676;2023-02-17T12:49:30;102699.94;;;26.54;52.14
21555;BME280;10938;44.794;-0.676;2023-02-17T12:55:19;102704.78;;;26.37;51.21
21555;BME280;10938;44.794;-0.676;2023-02-17T12:57:57;102697.34;;;26.07;52.35
21555;BME280;10938;44.794;-0.676;2023-02-17T13:00:38;102686.22;;;25.82;52.09
21555;BME280;10938;44.794;-0.676;2023-02-17T13:03:05;102687.31;;;25.72;51.55
21555;BME280;10938;44.794;-0.676;2023-02-17T13:05:55;102691.31;;;25.96;51.12
21555;BME280;10938;44.794;-0.676;2023-02-17T13:11:25;102684.22;;;26.39;52.19
21555;BME280;10938;44.794;-0.676;2023-02-17T13:13:51;102676.84;;;26.50;51.63
21555;BME280;10938;44.794;-0.676;2023-02-17T13:16:18;102679.22;;;26.62;51.78
21555;BME280;10938;44.794;-0.676;2023-02-17T13:18:46;102668.78;;;26.52;52.32
21555;BME280;10938;44.794;-0.676;2023-02-17T13:24:05;102667.41;;;26.73;50.23
21555;BME280;10938;44.794;-0.676;2023-02-17T13:26:49;102661.38;;;26.65;49.21
21555;BME280;10938;44.794;-0.676;2023-02-17T13:36:58;102654.59;;;26.48;48.67
21555;BME280;10938;44.794;-0.676;2023-02-17T13:41:55;102645.00;;;26.77;49.70
21555;BME280;10938;44.794;-0.676;2023-02-17T13:47:24;102640.47;;;26.82;46.54
21555;BME280;10938;44.794;-0.676;2023-02-17T13:50:00;102638.97;;;26.69;47.90
21555;BME280;10938;44.794;-0.676;2023-02-17T13:52:29;102638.13;;;26.67;47.59
21555;BME280;10938;44.794;-0.676;2023-02-17T13:54:59;102628.59;;;26.55;47.16
21555;BME280;10938;44.794;-0.676;2023-02-17T13:57:33;102627.25;;;26.34;48.51
21555;BME280;10938;44.794;-0.676;2023-02-17T14:02:36;102623.22;;;26.55;46.48
21555;BME280;10938;44.794;-0.676;2023-02-17T14:05:26;102618.19;;;26.81;46.10
21555;BME280;10938;44.794;-0.676;2023-02-17T14:07:58;102612.88;;;26.40;44.61
21555;BME280;10938;44.794;-0.676;2023-02-17T14:10:25;102615.50;;;26.00;46.61
21555;BME280;10938;44.794;-0.676;2023-02-17T14:12:52;102604.75;;;26.44;46.62
21555;BME280;10938;44.794;-0.676;2023-02-17T14:15:22;102603.16;;;26.74;45.57
21555;BME280;10938;44.794;-0.676;2023-02-17T14:17:48;102597.94;;;26.68;46.04
21555;BME280;10938;44.794;-0.676;2023-02-17T14:20:46;102593.81;;;26.92;46.41
21555;BME280;10938;44.794;-0.676;2023-02-17T14:23:13;102592.44;;;26.74;46.55
21555;BME280;10938;44.794;-0.676;2023-02-17T14:25:42;102597.72;;;26.76;47.41
21555;BME280;10938;44.794;-0.676;2023-02-17T14:28:25;102587.75;;;26.45;46.15
21555;BME280;10938;44.794;-0.676;2023-02-17T14:30:52;102583.84;;;26.61;46.41
21555;BME280;10938;44.794;-0.676;2023-02-17T14:33:21;102590.50;;;26.42;45.79